sensor_id;sensor_type;location;lat;lon;timestamp;P1;durP1;ratioP1;P2;durP2;ratioP2
24335;SDS011;33098;52.400;16.880;2023-09-18T00:01:31;9.90;;;8.10;;
24335;SDS011;33098;52.400;16.880;2023-09-18T00:03:58;12.80;;;8.50;;
24335;SDS011;33098;52.400;16.880;2023-09-18T00:06:25;9.30;;;8.30;;
24335;SDS011;33098;52.400;16.880;2023-09-18T00:08:51;9.30;;;8.10;;
24335;SDS011;33098;52.400;16.880;2023-09-18T00:11:19;9.70;;;8.70;;
24335;SDS011;33098;52.400;16.880;2023-09-18T00:13:49;8.90;;;7.90;;
24335;SDS011;33098;52.400;16.880;2023-09-18T00:16:15;11.60;;;8.10;;
24335;SDS011;33098;52.400;16.880;2023-09-18T00:18:42;12.50;;;8.80;;
24335;SDS011;33098;52.400;16.880;2023-09-18T00:21:11;10.90;;;9.00;;
24335;SDS011;33098;52.400;16.880;2023-09-18T00:23:40;10.50;;;9.00;;
24335;SDS011;33098;52.400;16.880;2023-09-18T00:26:07;11.50;;;9.60;;
24335;SDS011;33098;52.400;16.880;2023-09-18T00:28:34;10.40;;;8.70;;
24335;SDS011;33098;52.400;16.880;2023-09-18T00:31:01;10.20;;;8.40;;
24335;SDS011;33098;52.400;16.880;2023-09-18T00:33:27;10.10;;;8.90;;
24335;SDS011;33098;52.400;16.880;2023-09-18T00:35:57;9.20;;;8.00;;
24335;SDS011;33098;52.400;16.880;2023-09-18T00:38:23;10.90;;;8.90;;
24335;SDS011;33098;52.400;16.880;2023-09-18T00:40:50;11.70;;;9.10;;
24335;SDS011;33098;52.400;16.880;2023-09-18T00:43:17;9.80;;;8.10;;
24335;SDS011;33098;52.400;16.880;2023-09-18T00:45:45;9.70;;;8.70;;
24335;SDS011;33098;52.400;16.880;2023-09-18T00:48:16;10.90;;;8.80;;
24335;SDS011;33098;52.400;16.880;2023-09-18T00:50:43;13.00;;;9.30;;
24335;SDS011;33098;52.400;16.880;2023-09-18T00:53:17;11.70;;;9.20;;
24335;SDS011;33098;52.400;16.880;2023-09-18T00:55:46;11.30;;;9.10;;
24335;SDS011;33098;52.400;16.880;2023-09-18T00:58:13;10.00;;;8.70;;
24335;SDS011;33098;52.400;16.880;2023-09-18T01:00:41;10.40;;;8.60;;
24335;SDS011;33098;52.400;16.880;2023-09-18T01:03:08;10.80;;;8.90;;
24335;SDS011;33098;52.400;16.880;2023-09-18T01:05:39;10.00;;;8.60;;
24335;SDS011;33098;52.400;16.880;2023-09-18T01:08:08;10.30;;;8.50;;
24335;SDS011;33098;52.400;16.880;2023-09-18T01:10:44;11.50;;;9.10;;
24335;SDS011;33098;52.400;16.880;2023-09-18T01:13:23;10.70;;;9.60;;
24335;SDS011;33098;52.400;16.880;2023-09-18T01:16:00;12.10;;;9.40;;
24335;SDS011;33098;52.400;16.880;2023-09-18T01:18:31;10.70;;;9.30;;
24335;SDS011;33098;52.400;16.880;2023-09-18T01:21:01;10.80;;;9.60;;
24335;SDS011;33098;52.400;16.880;2023-09-18T01:23:28;12.50;;;9.70;;
24335;SDS011;33098;52.400;16.880;2023-09-18T01:25:57;11.10;;;9.30;;
24335;SDS011;33098;52.400;16.880;2023-09-18T01:28:24;11.10;;;9.10;;
24335;SDS011;33098;52.400;16.880;2023-09-18T01:30:51;11.10;;;9.20;;
24335;SDS011;33098;52.400;16.880;2023-09-18T01:33:20;12.70;;;9.50;;
24335;SDS011;33098;52.400;16.880;2023-09-18T01:35:47;10.60;;;9.00;;
24335;SDS011;33098;52.400;16.880;2023-09-18T01:38:17;12.50;;;9.30;;
24335;SDS011;33098;52.400;16.880;2023-09-18T01:40:45;11.90;;;9.30;;
24335;SDS011;33098;52.400;16.880;2023-09-18T01:43:12;12.60;;;9.30;;
24335;SDS011;33098;52.400;16.880;2023-09-18T01:45:42;10.60;;;9.40;;
24335;SDS011;33098;52.400;16.880;2023-09-18T01:48:09;10.20;;;9.20;;
24335;SDS011;33098;52.400;16.880;2023-09-18T01:50:36;9.70;;;8.60;;
24335;SDS011;33098;52.400;16.880;2023-09-18T01:53:05;10.50;;;9.40;;
24335;SDS011;33098;52.400;16.880;2023-09-18T01:55:35;11.80;;;10.00;;
24335;SDS011;33098;52.400;16.880;2023-09-18T01:58:02;11.40;;;9.50;;
24335;SDS011;33098;52.400;16.880;2023-09-18T02:00:29;10.20;;;9.20;;
24335;SDS011;33098;52.400;16.880;2023-09-18T02:02:58;13.20;;;10.10;;
24335;SDS011;33098;52.400;16.880;2023-09-18T02:05:24;10.60;;;9.50;;
24335;SDS011;33098;52.400;16.880;2023-09-18T02:07:51;11.80;;;9.40;;
24335;SDS011;33098;52.400;16.880;2023-09-18T02:10:21;12.20;;;9.90;;
24335;SDS011;33098;52.400;16.880;2023-09-18T02:12:48;12.90;;;9.50;;
24335;SDS011;33098;52.400;16.880;2023-09-18T02:15:15;12.80;;;10.50;;
24335;SDS011;33098;52.400;16.880;2023-09-18T02:17:43;11.20;;;9.90;;
24335;SDS011;33098;52.400;16.880;2023-09-18T02:20:14;11.40;;;10.20;;
24335;SDS011;33098;52.400;16.880;2023-09-18T02:22:45;11.80;;;10.30;;
24335;SDS011;33098;52.400;16.880;2023-09-18T02:25:14;12.60;;;10.40;;
24335;SDS011;33098;52.400;16.880;2023-09-18T02:27:41;12.60;;;10.80;;
24335;SDS011;33098;52.400;16.880;2023-09-18T02:30:08;12.90;;;10.40;;
24335;SDS011;33098;52.400;16.880;2023-09-18T02:32:39;13.50;;;11.00;;
24335;SDS011;33098;52.400;16.880;2023-09-18T02:35:12;12.90;;;11.50;;
24335;SDS011;33098;52.400;16.880;2023-09-18T02:37:39;13.00;;;10.80;;
24335;SDS011;33098;52.400;16.880;2023-09-18T02:40:07;12.90;;;10.80;;
24335;SDS011;33098;52.400;16.880;2023-09-18T02:42:37;14.70;;;11.90;;
24335;SDS011;33098;52.400;16.880;2023-09-18T02:45:04;15.10;;;10.90;;
24335;SDS011;33098;52.400;16.880;2023-09-18T02:47:31;13.70;;;11.00;;
24335;SDS011;33098;52.400;16.880;2023-09-18T02:50:03;11.60;;;10.50;;
24335;SDS011;33098;52.400;16.880;2023-09-18T02:52:33;13.60;;;11.20;;
24335;SDS011;33098;52.400;16.880;2023-09-18T02:55:02;11.80;;;10.50;;
24335;SDS011;33098;52.400;16.880;2023-09-18T02:57:31;14.00;;;11.30;;
24335;SDS011;33098;52.400;16.880;2023-09-18T02:59:58;11.90;;;10.60;;
24335;SDS011;33098;52.400;16.880;2023-09-18T03:02:25;13.40;;;11.10;;
24335;SDS011;33098;52.400;16.880;2023-09-18T03:04:52;12.60;;;11.10;;
24335;SDS011;33098;52.400;16.880;2023-09-18T03:07:19;12.40;;;11.10;;
24335;SDS011;33098;52.400;16.880;2023-09-18T03:09:45;12.90;;;11.50;;
24335;SDS011;33098;52.400;16.880;2023-09-18T03:12:14;12.70;;;11.20;;
24335;SDS011;33098;52.400;16.880;2023-09-18T03:14:40;15.20;;;11.90;;
24335;SDS011;33098;52.400;16.880;2023-09-18T03:17:07;13.20;;;11.50;;
24335;SDS011;33098;52.400;16.880;2023-09-18T03:19:34;13.90;;;11.40;;
24335;SDS011;33098;52.400;16.880;2023-09-18T03:22:05;14.10;;;11.80;;
24335;SDS011;33098;52.400;16.880;2023-09-18T03:24:31;14.70;;;11.00;;
24335;SDS011;33098;52.400;16.880;2023-09-18T03:27:06;13.00;;;11.60;;
24335;SDS011;33098;52.400;16.880;2023-09-18T03:29:33;13.00;;;11.60;;
24335;SDS011;33098;52.400;16.880;2023-09-18T03:32:01;12.80;;;11.40;;
24335;SDS011;33098;52.400;16.880;2023-09-18T03:34:28;14.60;;;11.90;;
24335;SDS011;33098;52.400;16.880;2023-09-18T03:36:54;14.80;;;11.40;;
24335;SDS011;33098;52.400;16.880;2023-09-18T03:39:22;13.50;;;12.10;;
24335;SDS011;33098;52.400;16.880;2023-09-18T03:41:49;13.80;;;12.10;;
24335;SDS011;33098;52.400;16.880;2023-09-18T03:44:16;14.90;;;12.90;;
24335;SDS011;33098;52.400;16.880;2023-09-18T03:46:43;14.70;;;12.10;;
24335;SDS011;33098;52.400;16.880;2023-09-18T03:49:10;14.40;;;12.50;;
24335;SDS011;33098;52.400;16.880;2023-09-18T03:51:37;14.20;;;12.60;;
24335;SDS011;33098;52.400;16.880;2023-09-18T03:54:09;14.20;;;12.50;;
24335;SDS011;33098;52.400;16.880;2023-09-18T03:56:36;16.40;;;12.90;;
24335;SDS011;33098;52.400;16.880;2023-09-18T03:59:08;15.30;;;12.50;;
24335;SDS011;33098;52.400;16.880;2023-09-18T04:01:38;17.80;;;13.20;;
24335;SDS011;33098;52.400;16.880;2023-09-18T04:04:07;15.20;;;13.60;;
24335;SDS011;33098;52.400;16.880;2023-09-18T04:06:41;19.10;;;14.70;;
24335;SDS011;33098;52.400;16.880;2023-09-18T04:09:09;18.50;;;14.90;;
24335;SDS011;33098;52.400;16.880;2023-09-18T04:11:39;17.30;;;15.50;;
24335;SDS011;33098;52.400;16.880;2023-09-18T04:14:06;17.70;;;15.60;;
24335;SDS011;33098;52.400;16.880;2023-09-18T04:16:33;16.50;;;14.70;;
24335;SDS011;33098;52.400;16.880;2023-09-18T04:19:07;18.40;;;14.90;;
24335;SDS011;33098;52.400;16.880;2023-09-18T04:21:37;17.10;;;15.20;;
24335;SDS011;33098;52.400;16.880;2023-09-18T04:24:07;23.20;;;15.10;;
24335;SDS011;33098;52.400;16.880;2023-09-18T04:26:37;17.90;;;14.70;;
24335;SDS011;33098;52.400;16.880;2023-09-18T04:29:08;16.10;;;14.20;;
24335;SDS011;33098;52.400;16.880;2023-09-18T04:31:35;17.00;;;14.60;;
24335;SDS011;33098;52.400;16.880;2023-09-18T04:34:02;16.20;;;14.60;;
24335;SDS011;33098;52.400;16.880;2023-09-18T04:36:29;15.30;;;13.70;;
24335;SDS011;33098;52.400;16.880;2023-09-18T04:38:58;19.50;;;15.40;;
24335;SDS011;33098;52.400;16.880;2023-09-18T04:41:30;17.10;;;14.50;;
24335;SDS011;33098;52.400;16.880;2023-09-18T04:44:10;19.20;;;15.60;;
24335;SDS011;33098;52.400;16.880;2023-09-18T04:46:42;18.20;;;15.20;;
24335;SDS011;33098;52.400;16.880;2023-09-18T04:49:11;17.80;;;14.70;;
24335;SDS011;33098;52.400;16.880;2023-09-18T04:51:39;16.90;;;14.60;;
24335;SDS011;33098;52.400;16.880;2023-09-18T04:54:08;16.50;;;14.80;;
24335;SDS011;33098;52.400;16.880;2023-09-18T04:56:35;20.10;;;14.80;;
24335;SDS011;33098;52.400;16.880;2023-09-18T04:59:02;18.20;;;14.60;;
24335;SDS011;33098;52.400;16.880;2023-09-18T05:01:33;18.60;;;15.40;;
24335;SDS011;33098;52.400;16.880;2023-09-18T05:04:00;17.90;;;13.90;;
24335;SDS011;33098;52.400;16.880;2023-09-18T05:06:32;16.00;;;14.20;;
24335;SDS011;33098;52.400;16.880;2023-09-18T05:09:00;16.60;;;14.90;;
24335;SDS011;33098;52.400;16.880;2023-09-18T05:11:28;18.50;;;14.80;;
24335;SDS011;33098;52.400;16.880;2023-09-18T05:14:00;19.30;;;14.60;;
24335;SDS011;33098;52.400;16.880;2023-09-18T05:16:27;18.90;;;14.20;;
24335;SDS011;33098;52.400;16.880;2023-09-18T05:18:55;17.70;;;14.30;;
24335;SDS011;33098;52.400;16.880;2023-09-18T05:21:22;17.90;;;14.20;;
24335;SDS011;33098;52.400;16.880;2023-09-18T05:23:51;16.80;;;15.10;;
24335;SDS011;33098;52.400;16.880;2023-09-18T05:26:18;16.10;;;14.50;;
24335;SDS011;33098;52.400;16.880;2023-09-18T05:28:45;19.00;;;15.20;;
24335;SDS011;33098;52.400;16.880;2023-09-18T05:31:13;17.10;;;14.70;;
24335;SDS011;33098;52.400;16.880;2023-09-18T05:33:42;18.80;;;14.90;;
24335;SDS011;33098;52.400;16.880;2023-09-18T05:36:12;18.20;;;14.30;;
24335;SDS011;33098;52.400;16.880;2023-09-18T05:38:44;17.80;;;14.70;;
24335;SDS011;33098;52.400;16.880;2023-09-18T05:41:20;17.50;;;14.50;;
24335;SDS011;33098;52.400;16.880;2023-09-18T05:46:17;17.80;;;15.10;;
24335;SDS011;33098;52.400;16.880;2023-09-18T05:48:43;17.00;;;14.40;;
24335;SDS011;33098;52.400;16.880;2023-09-18T05:51:10;17.30;;;14.60;;
24335;SDS011;33098;52.400;16.880;2023-09-18T05:53:40;18.00;;;13.90;;
24335;SDS011;33098;52.400;16.880;2023-09-18T05:56:10;18.70;;;14.40;;
24335;SDS011;33098;52.400;16.880;2023-09-18T05:58:38;17.50;;;13.90;;
24335;SDS011;33098;52.400;16.880;2023-09-18T06:01:06;20.40;;;14.00;;
24335;SDS011;33098;52.400;16.880;2023-09-18T06:03:36;16.70;;;13.70;;
24335;SDS011;33098;52.400;16.880;2023-09-18T06:06:05;17.70;;;13.70;;
24335;SDS011;33098;52.400;16.880;2023-09-18T06:08:35;15.60;;;13.10;;
24335;SDS011;33098;52.400;16.880;2023-09-18T06:11:11;15.40;;;13.30;;
24335;SDS011;33098;52.400;16.880;2023-09-18T06:13:43;15.90;;;13.90;;
24335;SDS011;33098;52.400;16.880;2023-09-18T06:16:15;17.30;;;13.00;;
24335;SDS011;33098;52.400;16.880;2023-09-18T06:18:45;16.00;;;14.10;;
24335;SDS011;33098;52.400;16.880;2023-09-18T06:21:13;17.20;;;13.10;;
24335;SDS011;33098;52.400;16.880;2023-09-18T06:23:40;19.10;;;13.30;;
24335;SDS011;33098;52.400;16.880;2023-09-18T06:26:09;17.30;;;13.60;;
24335;SDS011;33098;52.400;16.880;2023-09-18T06:28:37;20.60;;;13.30;;
24335;SDS011;33098;52.400;16.880;2023-09-18T06:31:07;16.30;;;12.80;;
24335;SDS011;33098;52.400;16.880;2023-09-18T06:33:41;16.20;;;13.10;;
24335;SDS011;33098;52.400;16.880;2023-09-18T06:36:10;19.40;;;12.80;;
24335;SDS011;33098;52.400;16.880;2023-09-18T06:38:39;17.10;;;13.00;;
24335;SDS011;33098;52.400;16.880;2023-09-18T06:41:08;17.10;;;13.80;;
24335;SDS011;33098;52.400;16.880;2023-09-18T06:43:40;17.90;;;12.60;;
24335;SDS011;33098;52.400;16.880;2023-09-18T06:46:09;17.80;;;13.30;;
24335;SDS011;33098;52.400;16.880;2023-09-18T06:48:45;17.80;;;13.40;;
24335;SDS011;33098;52.400;16.880;2023-09-18T06:51:15;15.70;;;12.70;;
24335;SDS011;33098;52.400;16.880;2023-09-18T06:53:43;18.40;;;12.70;;
24335;SDS011;33098;52.400;16.880;2023-09-18T06:56:10;13.40;;;12.00;;
24335;SDS011;33098;52.400;16.880;2023-09-18T06:58:40;20.00;;;11.90;;
24335;SDS011;33098;52.400;16.880;2023-09-18T07:01:07;15.90;;;11.70;;
24335;SDS011;33098;52.400;16.880;2023-09-18T07:03:36;16.40;;;12.80;;
24335;SDS011;33098;52.400;16.880;2023-09-18T07:06:06;19.80;;;12.10;;
24335;SDS011;33098;52.400;16.880;2023-09-18T07:08:36;23.20;;;11.70;;
24335;SDS011;33098;52.400;16.880;2023-09-18T07:11:08;15.60;;;11.60;;
24335;SDS011;33098;52.400;16.880;2023-09-18T07:13:41;14.90;;;11.00;;
24335;SDS011;33098;52.400;16.880;2023-09-18T07:16:12;20.00;;;12.10;;
24335;SDS011;33098;52.400;16.880;2023-09-18T07:18:42;15.10;;;11.90;;
24335;SDS011;33098;52.400;16.880;2023-09-18T07:21:12;14.30;;;12.00;;
24335;SDS011;33098;52.400;16.880;2023-09-18T07:23:40;14.40;;;12.00;;
24335;SDS011;33098;52.400;16.880;2023-09-18T07:26:07;15.40;;;11.20;;
24335;SDS011;33098;52.400;16.880;2023-09-18T07:28:34;16.20;;;11.70;;
24335;SDS011;33098;52.400;16.880;2023-09-18T07:31:08;16.80;;;11.20;;
24335;SDS011;33098;52.400;16.880;2023-09-18T07:33:37;19.40;;;10.90;;
24335;SDS011;33098;52.400;16.880;2023-09-18T07:36:07;14.30;;;10.90;;
24335;SDS011;33098;52.400;16.880;2023-09-18T07:38:38;13.50;;;10.60;;
24335;SDS011;33098;52.400;16.880;2023-09-18T07:41:15;14.10;;;10.40;;
24335;SDS011;33098;52.400;16.880;2023-09-18T07:43:42;13.60;;;10.70;;
24335;SDS011;33098;52.400;16.880;2023-09-18T07:46:12;14.90;;;11.10;;
24335;SDS011;33098;52.400;16.880;2023-09-18T07:48:39;16.00;;;10.80;;
24335;SDS011;33098;52.400;16.880;2023-09-18T07:51:12;15.20;;;11.50;;
24335;SDS011;33098;52.400;16.880;2023-09-18T07:53:49;13.70;;;10.70;;
24335;SDS011;33098;52.400;16.880;2023-09-18T07:56:16;15.00;;;10.00;;
24335;SDS011;33098;52.400;16.880;2023-09-18T07:58:46;13.20;;;10.20;;
24335;SDS011;33098;52.400;16.880;2023-09-18T08:01:16;11.50;;;10.00;;
24335;SDS011;33098;52.400;16.880;2023-09-18T08:03:43;15.60;;;10.00;;
24335;SDS011;33098;52.400;16.880;2023-09-18T08:06:12;11.00;;;9.80;;
24335;SDS011;33098;52.400;16.880;2023-09-18T08:08:49;12.30;;;8.40;;
24335;SDS011;33098;52.400;16.880;2023-09-18T08:11:17;9.50;;;8.10;;
24335;SDS011;33098;52.400;16.880;2023-09-18T08:13:48;10.50;;;8.20;;
24335;SDS011;33098;52.400;16.880;2023-09-18T08:16:15;10.00;;;8.10;;
24335;SDS011;33098;52.400;16.880;2023-09-18T08:18:50;10.80;;;8.40;;
24335;SDS011;33098;52.400;16.880;2023-09-18T08:21:17;9.60;;;7.50;;
24335;SDS011;33098;52.400;16.880;2023-09-18T08:23:44;9.50;;;7.70;;
24335;SDS011;33098;52.400;16.880;2023-09-18T08:26:17;10.30;;;8.00;;
24335;SDS011;33098;52.400;16.880;2023-09-18T08:28:46;7.80;;;7.00;;
24335;SDS011;33098;52.400;16.880;2023-09-18T08:31:15;9.30;;;7.10;;
24335;SDS011;33098;52.400;16.880;2023-09-18T08:33:48;8.60;;;7.50;;
24335;SDS011;33098;52.400;16.880;2023-09-18T08:36:16;8.00;;;7.10;;
24335;SDS011;33098;52.400;16.880;2023-09-18T08:38:43;8.50;;;7.60;;
24335;SDS011;33098;52.400;16.880;2023-09-18T08:41:14;9.00;;;7.00;;
24335;SDS011;33098;52.400;16.880;2023-09-18T08:43:52;10.40;;;7.00;;
24335;SDS011;33098;52.400;16.880;2023-09-18T08:46:23;8.20;;;6.60;;
24335;SDS011;33098;52.400;16.880;2023-09-18T08:48:50;10.30;;;7.20;;
24335;SDS011;33098;52.400;16.880;2023-09-18T08:51:24;8.80;;;6.70;;
24335;SDS011;33098;52.400;16.880;2023-09-18T08:53:52;9.00;;;7.10;;
24335;SDS011;33098;52.400;16.880;2023-09-18T08:56:21;7.10;;;6.40;;
24335;SDS011;33098;52.400;16.880;2023-09-18T08:58:49;9.80;;;7.00;;
24335;SDS011;33098;52.400;16.880;2023-09-18T09:01:22;7.80;;;7.00;;
24335;SDS011;33098;52.400;16.880;2023-09-18T09:03:52;9.70;;;6.70;;
24335;SDS011;33098;52.400;16.880;2023-09-18T09:06:23;7.70;;;6.90;;
24335;SDS011;33098;52.400;16.880;2023-09-18T09:08:51;8.40;;;7.50;;
24335;SDS011;33098;52.400;16.880;2023-09-18T09:11:21;9.70;;;7.30;;
24335;SDS011;33098;52.400;16.880;2023-09-18T09:16:55;10.20;;;7.10;;
24335;SDS011;33098;52.400;16.880;2023-09-18T09:19:34;7.60;;;6.70;;
24335;SDS011;33098;52.400;16.880;2023-09-18T09:22:10;9.90;;;6.90;;
24335;SDS011;33098;52.400;16.880;2023-09-18T09:24:48;9.50;;;7.30;;
24335;SDS011;33098;52.400;16.880;2023-09-18T09:27:18;8.80;;;7.00;;
24335;SDS011;33098;52.400;16.880;2023-09-18T09:29:57;8.10;;;6.80;;
24335;SDS011;33098;52.400;16.880;2023-09-18T09:32:31;8.30;;;7.30;;
24335;SDS011;33098;52.400;16.880;2023-09-18T09:35:04;6.90;;;6.30;;
24335;SDS011;33098;52.400;16.880;2023-09-18T09:37:38;10.00;;;7.50;;
24335;SDS011;33098;52.400;16.880;2023-09-18T09:40:06;8.20;;;6.30;;
24335;SDS011;33098;52.400;16.880;2023-09-18T09:42:39;7.80;;;6.30;;
24335;SDS011;33098;52.400;16.880;2023-09-18T09:45:11;8.00;;;7.20;;
24335;SDS011;33098;52.400;16.880;2023-09-18T09:47:42;7.90;;;6.60;;
24335;SDS011;33098;52.400;16.880;2023-09-18T09:50:13;9.70;;;6.40;;
24335;SDS011;33098;52.400;16.880;2023-09-18T09:52:52;7.20;;;6.20;;
24335;SDS011;33098;52.400;16.880;2023-09-18T09:57:57;9.40;;;5.90;;
24335;SDS011;33098;52.400;16.880;2023-09-18T10:00:31;6.80;;;5.90;;
24335;SDS011;33098;52.400;16.880;2023-09-18T10:03:16;7.30;;;5.60;;
24335;SDS011;33098;52.400;16.880;2023-09-18T10:05:50;6.60;;;5.90;;
24335;SDS011;33098;52.400;16.880;2023-09-18T10:08:23;7.90;;;6.50;;
24335;SDS011;33098;52.400;16.880;2023-09-18T10:10:55;7.00;;;6.30;;
24335;SDS011;33098;52.400;16.880;2023-09-18T10:13:46;7.90;;;5.90;;
24335;SDS011;33098;52.400;16.880;2023-09-18T10:16:18;6.80;;;5.90;;
24335;SDS011;33098;52.400;16.880;2023-09-18T10:24:20;7.30;;;6.10;;
24335;SDS011;33098;52.400;16.880;2023-09-18T10:26:57;7.30;;;6.00;;
24335;SDS011;33098;52.400;16.880;2023-09-18T10:29:25;7.40;;;5.90;;
24335;SDS011;33098;52.400;16.880;2023-09-18T10:31:54;7.80;;;5.40;;
24335;SDS011;33098;52.400;16.880;2023-09-18T10:34:27;8.40;;;5.90;;
24335;SDS011;33098;52.400;16.880;2023-09-18T10:36:56;6.10;;;5.50;;
24335;SDS011;33098;52.400;16.880;2023-09-18T10:39:30;6.80;;;6.20;;
24335;SDS011;33098;52.400;16.880;2023-09-18T10:42:03;6.00;;;5.40;;
24335;SDS011;33098;52.400;16.880;2023-09-18T10:44:31;6.10;;;5.50;;
24335;SDS011;33098;52.400;16.880;2023-09-18T10:46:59;6.50;;;5.50;;
24335;SDS011;33098;52.400;16.880;2023-09-18T10:49:28;11.10;;;5.90;;
24335;SDS011;33098;52.400;16.880;2023-09-18T10:51:57;6.70;;;5.70;;
24335;SDS011;33098;52.400;16.880;2023-09-18T10:54:26;7.40;;;5.90;;
24335;SDS011;33098;52.400;16.880;2023-09-18T10:56:59;7.10;;;5.70;;
24335;SDS011;33098;52.400;16.880;2023-09-18T10:59:28;9.90;;;6.00;;
24335;SDS011;33098;52.400;16.880;2023-09-18T11:01:56;7.80;;;6.00;;
24335;SDS011;33098;52.400;16.880;2023-09-18T11:04:23;6.80;;;5.50;;
24335;SDS011;33098;52.400;16.880;2023-09-18T11:07:04;6.70;;;5.00;;
24335;SDS011;33098;52.400;16.880;2023-09-18T11:09:32;7.60;;;5.40;;
24335;SDS011;33098;52.400;16.880;2023-09-18T11:12:09;5.80;;;5.30;;
24335;SDS011;33098;52.400;16.880;2023-09-18T11:20:18;6.10;;;5.40;;
24335;SDS011;33098;52.400;16.880;2023-09-18T11:22:59;7.70;;;5.90;;
24335;SDS011;33098;52.400;16.880;2023-09-18T11:25:45;6.60;;;5.40;;
24335;SDS011;33098;52.400;16.880;2023-09-18T11:28:15;7.30;;;5.60;;
24335;SDS011;33098;52.400;16.880;2023-09-18T11:30:52;7.20;;;5.20;;
24335;SDS011;33098;52.400;16.880;2023-09-18T11:33:37;6.50;;;5.70;;
24335;SDS011;33098;52.400;16.880;2023-09-18T11:36:12;7.40;;;5.80;;
24335;SDS011;33098;52.400;16.880;2023-09-18T11:38:56;10.20;;;5.70;;
24335;SDS011;33098;52.400;16.880;2023-09-18T11:41:33;8.00;;;5.50;;
24335;SDS011;33098;52.400;16.880;2023-09-18T11:44:31;6.10;;;5.50;;
24335;SDS011;33098;52.400;16.880;2023-09-18T11:46:54;8.50;;;5.50;;
24335;SDS011;33098;52.400;16.880;2023-09-18T11:49:22;7.60;;;6.00;;
24335;SDS011;33098;52.400;16.880;2023-09-18T11:51:55;5.90;;;5.40;;
24335;SDS011;33098;52.400;16.880;2023-09-18T11:54:28;6.70;;;6.10;;
24335;SDS011;33098;52.400;16.880;2023-09-18T11:57:11;7.60;;;5.60;;
24335;SDS011;33098;52.400;16.880;2023-09-18T11:59:44;9.10;;;5.70;;
24335;SDS011;33098;52.400;16.880;2023-09-18T12:02:26;8.70;;;6.00;;
24335;SDS011;33098;52.400;16.880;2023-09-18T12:07:57;6.20;;;5.60;;
24335;SDS011;33098;52.400;16.880;2023-09-18T12:10:23;7.10;;;5.80;;
24335;SDS011;33098;52.400;16.880;2023-09-18T12:12:53;7.60;;;5.80;;
24335;SDS011;33098;52.400;16.880;2023-09-18T12:15:28;6.60;;;5.30;;
24335;SDS011;33098;52.400;16.880;2023-09-18T12:18:10;6.00;;;5.50;;
24335;SDS011;33098;52.400;16.880;2023-09-18T12:20:48;6.10;;;5.50;;
24335;SDS011;33098;52.400;16.880;2023-09-18T12:23:19;7.20;;;5.20;;
24335;SDS011;33098;52.400;16.880;2023-09-18T12:25:50;5.80;;;4.90;;
24335;SDS011;33098;52.400;16.880;2023-09-18T12:28:26;6.90;;;5.10;;
24335;SDS011;33098;52.400;16.880;2023-09-18T12:30:59;7.00;;;5.30;;
24335;SDS011;33098;52.400;16.880;2023-09-18T12:33:34;6.10;;;5.00;;
24335;SDS011;33098;52.400;16.880;2023-09-18T12:36:03;5.20;;;4.80;;
24335;SDS011;33098;52.400;16.880;2023-09-18T12:38:37;8.40;;;5.30;;
24335;SDS011;33098;52.400;16.880;2023-09-18T12:41:07;5.90;;;5.10;;
24335;SDS011;33098;52.400;16.880;2023-09-18T12:43:38;5.70;;;4.90;;
24335;SDS011;33098;52.400;16.880;2023-09-18T12:46:12;5.90;;;5.10;;
24335;SDS011;33098;52.400;16.880;2023-09-18T12:48:39;5.70;;;5.20;;
24335;SDS011;33098;52.400;16.880;2023-09-18T12:51:13;7.90;;;4.60;;
24335;SDS011;33098;52.400;16.880;2023-09-18T12:53:43;7.10;;;4.90;;
24335;SDS011;33098;52.400;16.880;2023-09-18T12:56:11;9.00;;;5.80;;
24335;SDS011;33098;52.400;16.880;2023-09-18T12:58:42;9.30;;;5.20;;
24335;SDS011;33098;52.400;16.880;2023-09-18T13:01:15;6.00;;;5.40;;
24335;SDS011;33098;52.400;16.880;2023-09-18T13:03:44;6.20;;;5.40;;
24335;SDS011;33098;52.400;16.880;2023-09-18T13:06:17;6.50;;;5.40;;
24335;SDS011;33098;52.400;16.880;2023-09-18T13:08:45;8.40;;;5.30;;
24335;SDS011;33098;52.400;16.880;2023-09-18T13:11:15;8.20;;;5.70;;
24335;SDS011;33098;52.400;16.880;2023-09-18T13:13:43;5.90;;;5.40;;
24335;SDS011;33098;52.400;16.880;2023-09-18T13:16:14;6.40;;;5.80;;
24335;SDS011;33098;52.400;16.880;2023-09-18T13:18:49;7.10;;;6.00;;
24335;SDS011;33098;52.400;16.880;2023-09-18T13:21:21;6.20;;;5.60;;
24335;SDS011;33098;52.400;16.880;2023-09-18T13:23:51;6.60;;;5.90;;
24335;SDS011;33098;52.400;16.880;2023-09-18T13:26:28;10.70;;;6.00;;
24335;SDS011;33098;52.400;16.880;2023-09-18T13:29:01;7.00;;;6.10;;
24335;SDS011;33098;52.400;16.880;2023-09-18T13:31:32;9.40;;;6.60;;
24335;SDS011;33098;52.400;16.880;2023-09-18T13:34:05;8.60;;;6.80;;
24335;SDS011;33098;52.400;16.880;2023-09-18T13:36:36;8.80;;;6.50;;
24335;SDS011;33098;52.400;16.880;2023-09-18T13:39:05;10.10;;;6.30;;
24335;SDS011;33098;52.400;16.880;2023-09-18T13:41:32;8.10;;;6.50;;
24335;SDS011;33098;52.400;16.880;2023-09-18T13:43:59;7.70;;;6.90;;
24335;SDS011;33098;52.400;16.880;2023-09-18T13:46:31;7.40;;;6.70;;
24335;SDS011;33098;52.400;16.880;2023-09-18T13:48:57;7.80;;;6.70;;
24335;SDS011;33098;52.400;16.880;2023-09-18T13:53:54;8.00;;;6.90;;
24335;SDS011;33098;52.400;16.880;2023-09-18T13:56:33;8.50;;;6.90;;
24335;SDS011;33098;52.400;16.880;2023-09-18T13:59:01;8.90;;;7.20;;
24335;SDS011;33098;52.400;16.880;2023-09-18T14:01:29;7.70;;;7.00;;
24335;SDS011;33098;52.400;16.880;2023-09-18T14:03:55;8.20;;;7.40;;
24335;SDS011;33098;52.400;16.880;2023-09-18T14:06:22;7.70;;;7.00;;
24335;SDS011;33098;52.400;16.880;2023-09-18T14:08:49;10.10;;;7.60;;
24335;SDS011;33098;52.400;16.880;2023-09-18T14:11:16;8.30;;;7.50;;
24335;SDS011;33098;52.400;16.880;2023-09-18T14:13:47;8.70;;;7.70;;
24335;SDS011;33098;52.400;16.880;2023-09-18T14:16:14;9.20;;;7.80;;
24335;SDS011;33098;52.400;16.880;2023-09-18T14:18:41;8.10;;;7.30;;
24335;SDS011;33098;52.400;16.880;2023-09-18T14:21:09;9.10;;;7.70;;
24335;SDS011;33098;52.400;16.880;2023-09-18T14:23:35;9.50;;;8.20;;
24335;SDS011;33098;52.400;16.880;2023-09-18T14:26:02;10.80;;;8.00;;
24335;SDS011;33098;52.400;16.880;2023-09-18T14:28:29;9.00;;;7.80;;
24335;SDS011;33098;52.400;16.880;2023-09-18T14:30:57;9.40;;;7.90;;
24335;SDS011;33098;52.400;16.880;2023-09-18T14:33:24;8.90;;;7.90;;
24335;SDS011;33098;52.400;16.880;2023-09-18T14:35:54;10.40;;;7.90;;
24335;SDS011;33098;52.400;16.880;2023-09-18T14:38:21;11.00;;;7.80;;
24335;SDS011;33098;52.400;16.880;2023-09-18T14:40:48;9.50;;;8.60;;
24335;SDS011;33098;52.400;16.880;2023-09-18T14:43:15;9.10;;;8.20;;
24335;SDS011;33098;52.400;16.880;2023-09-18T14:45:43;9.80;;;7.90;;
24335;SDS011;33098;52.400;16.880;2023-09-18T14:48:10;10.70;;;8.00;;
24335;SDS011;33098;52.400;16.880;2023-09-18T14:50:36;10.70;;;7.70;;
24335;SDS011;33098;52.400;16.880;2023-09-18T14:53:09;10.10;;;7.20;;
24335;SDS011;33098;52.400;16.880;2023-09-18T14:55:36;8.50;;;7.30;;
24335;SDS011;33098;52.400;16.880;2023-09-18T14:58:03;10.90;;;7.00;;
24335;SDS011;33098;52.400;16.880;2023-09-18T15:00:30;9.50;;;7.00;;
24335;SDS011;33098;52.400;16.880;2023-09-18T15:02:57;10.00;;;7.50;;